Time;durP1;ratioP1;P1;durP2;ratioP2;P2;SDS_P1;SDS_P2;PMS_P1;PMS_P2;Temp;Humidity;BMP_temperature;BMP_pressure;BME280_temperature;BME280_humidity;BME280_pressure;Samples;Min_cycle;Max_cycle;Signal;HPM_P1;HPM_P2
2022/01/12 00:01:55;;;;;;;173.38;42.28;;;3.80;99.90;;;;;;5128159;27;20053;-74
2022/01/12 00:04:21;;;;;;;152.80;38.65;;;3.80;99.90;;;;;;5137241;27;20406;-74
2022/01/12 00:06:46;;;;;;;235.40;46.53;;;4.00;99.90;;;;;;5137218;27;20134;-74
2022/01/12 00:09:13;;;;;;;209.55;45.38;;;3.90;99.90;;;;;;5137165;27;20043;-74
2022/01/12 00:11:40;;;;;;;187.88;43.50;;;3.80;99.90;;;;;;5156700;27;20106;-74
2022/01/12 00:14:06;;;;;;;184.00;43.88;;;3.90;99.90;;;;;;5139536;27;20382;-74
2022/01/12 00:16:33;;;;;;;193.90;43.15;;;3.90;99.90;;;;;;5124583;27;20411;-74
2022/01/12 00:18:59;;;;;;;179.25;42.90;;;3.90;99.90;;;;;;5155797;27;20046;-74
2022/01/12 00:21:25;;;;;;;167.82;42.38;;;3.90;99.90;;;;;;5147207;27;20497;-74
2022/01/12 00:23:50;;;;;;;187.90;42.85;;;3.90;99.90;;;;;;5116989;27;20148;-75
2022/01/12 00:34:27;;;;;;;264.95;48.00;;;3.90;99.90;;;;;;5155644;27;20517;-74
2022/01/12 00:36:53;;;;;;;195.70;42.63;;;4.00;99.90;;;;;;5136857;27;20081;-74
2022/01/12 00:39:19;;;;;;;238.13;46.40;;;3.90;99.90;;;;;;5156230;27;20034;-74
2022/01/12 00:41:44;;;;;;;185.27;42.65;;;4.00;99.90;;;;;;5146670;27;20073;-74
2022/01/12 00:44:21;;;;;;;291.67;50.63;;;4.10;99.90;;;;;;5135235;27;20046;-74
2022/01/12 00:46:47;;;;;;;231.35;44.15;;;4.10;99.90;;;;;;5121488;27;20455;-74
2022/01/12 00:49:12;;;;;;;213.18;47.05;;;4.00;99.90;;;;;;5115716;27;20051;-74
2022/01/12 00:51:39;;;;;;;243.40;45.58;;;4.00;99.90;;;;;;5135033;27;20164;-74
2022/01/12 00:54:06;;;;;;;286.02;48.90;;;4.00;99.90;;;;;;5116985;27;20121;-74
2022/01/12 00:56:32;;;;;;;251.32;46.10;;;4.00;99.90;;;;;;5120332;27;20055;-74
2022/01/12 00:58:58;;;;;;;322.30;50.65;;;4.00;99.90;;;;;;5137092;27;20041;-74
2022/01/12 01:01:24;;;;;;;290.00;52.05;;;4.00;99.90;;;;;;5136174;27;20042;-74
2022/01/12 01:03:50;;;;;;;236.88;44.70;;;4.00;99.90;;;;;;5118876;27;20118;-74
2022/01/12 01:06:17;;;;;;;254.88;49.63;;;4.00;99.90;;;;;;5154899;27;20042;-74
2022/01/12 01:08:44;;;;;;;410.60;57.28;;;4.00;99.90;;;;;;5155562;27;20043;-74
2022/01/12 01:11:11;;;;;;;407.65;58.30;;;4.00;99.90;;;;;;5135778;27;20125;-74
2022/01/12 01:13:57;;;;;;;355.70;52.95;;;4.20;99.90;;;;;;5116315;28;20057;-74
2022/01/12 01:16:44;;;;;;;426.25;55.08;;;4.00;99.90;;;;;;5120376;27;20490;-74
2022/01/12 01:27:26;;;;;;;310.25;49.00;;;4.10;99.90;;;;;;5155309;27;20129;-74
2022/01/12 01:29:54;;;;;;;391.23;54.88;;;4.10;99.90;;;;;;5147300;27;20171;-74
2022/01/12 01:32:20;;;;;;;367.90;52.90;;;4.00;99.90;;;;;;5147388;27;20039;-74
2022/01/12 01:34:48;;;;;;;522.72;64.05;;;4.10;99.90;;;;;;5136156;27;20054;-74
2022/01/12 01:37:14;;;;;;;420.88;51.95;;;4.10;99.90;;;;;;5136198;27;20595;-74
2022/01/12 01:39:41;;;;;;;572.55;64.63;;;4.10;99.90;;;;;;5135725;27;20494;-74
2022/01/12 01:42:22;;;;;;;527.10;62.40;;;4.10;99.90;;;;;;5136594;27;20054;-74
2022/01/12 01:55:28;;;;;;;549.10;58.17;;;4.20;99.90;;;;;;5144273;27;20042;-74
2022/01/12 01:57:55;;;;;;;658.47;66.93;;;4.10;99.90;;;;;;5136488;27;20554;-74
2022/01/12 02:00:25;;;;;;;581.40;61.65;;;4.20;99.90;;;;;;5127309;28;20031;-74
2022/01/12 02:02:53;;;;;;;551.20;59.13;;;4.20;99.90;;;;;;5151939;27;20129;-74
2022/01/12 02:05:19;;;;;;;540.67;56.55;;;4.20;99.90;;;;;;5134584;27;20039;-74
2022/01/12 02:07:45;;;;;;;511.60;56.88;;;4.20;99.90;;;;;;5136237;27;20433;-74
2022/01/12 02:10:10;;;;;;;537.85;59.80;;;4.20;99.90;;;;;;5119397;28;20497;-74
2022/01/12 02:12:36;;;;;;;545.47;60.92;;;4.30;99.90;;;;;;5133457;28;20043;-74
2022/01/12 02:15:11;;;;;;;528.45;62.03;;;4.20;99.90;;;;;;5131198;27;20043;-74
2022/01/12 02:17:42;;;;;;;334.27;50.92;;;4.20;99.90;;;;;;5136077;27;20473;-74
2022/01/12 02:35:09;;;;;;;554.25;64.93;;;4.30;99.90;;;;;;5134782;27;20045;-74
2022/01/12 02:36:59;;;;;;;232.07;41.53;;;4.30;99.90;;;;;;5136360;27;20062;-74
2022/01/12 02:42:10;;;;;;;186.07;35.30;;;4.20;99.90;;;;;;5133049;28;20043;-74
2022/01/12 02:55:34;;;;;;;274.73;42.00;;;4.10;99.90;;;;;;5140657;27;20088;-74
2022/01/12 02:57:59;;;;;;;411.60;47.10;;;4.10;99.90;;;;;;5137227;27;20043;-74
2022/01/12 03:00:36;;;;;;;605.30;59.05;;;4.00;99.90;;;;;;5134153;27;20043;-74
2022/01/12 03:03:03;;;;;;;188.68;35.08;;;4.00;99.90;;;;;;5123160;27;20084;-74
2022/01/12 03:07:58;;;;;;;461.90;49.42;;;4.00;99.90;;;;;;5135787;27;20067;-74
2022/01/12 03:10:25;;;;;;;699.00;59.05;;;4.00;99.90;;;;;;5136138;27;20053;-74
2022/01/12 03:12:51;;;;;;;861.78;70.47;;;4.00;99.90;;;;;;5118584;27;20047;-74
2022/01/12 03:15:17;;;;;;;636.15;54.15;;;4.00;99.90;;;;;;5136680;27;20135;-74
2022/01/12 03:17:42;;;;;;;640.40;57.63;;;4.00;99.90;;;;;;5152877;27;20074;-74
2022/01/12 03:20:09;;;;;;;468.75;49.15;;;4.00;99.90;;;;;;5138534;27;20039;-74
2022/01/12 03:22:35;;;;;;;937.80;77.45;;;4.00;99.90;;;;;;5157482;27;20054;-74
2022/01/12 03:25:00;;;;;;;372.15;41.83;;;4.10;99.90;;;;;;5155587;27;20138;-74
2022/01/12 03:27:27;;;;;;;604.95;56.30;;;4.00;99.90;;;;;;5138773;27;20525;-74
2022/01/12 03:29:56;;;;;;;425.83;47.45;;;4.00;99.90;;;;;;5155997;27;20117;-74
2022/01/12 03:32:30;;;;;;;381.42;48.15;;;4.00;99.90;;;;;;5157056;27;20043;-74
2022/01/12 03:35:06;;;;;;;579.15;55.00;;;3.90;99.90;;;;;;5134759;27;20047;-74
2022/01/12 03:38:19;;;;;;;277.25;40.30;;;4.00;99.90;;;;;;5117372;27;20466;-74
2022/01/12 03:40:30;;;;;;;238.70;36.13;;;3.90;99.90;;;;;;5136499;27;20043;-74
2022/01/12 03:42:55;;;;;;;236.70;35.92;;;3.90;99.90;;;;;;5136266;27;20035;-74
2022/01/12 03:45:21;;;;;;;575.88;54.03;;;3.90;99.90;;;;;;5135588;27;20395;-74
2022/01/12 03:47:47;;;;;;;343.52;41.85;;;4.00;99.90;;;;;;5135229;27;20087;-74
2022/01/12 03:50:12;;;;;;;530.53;43.55;;;3.80;99.90;;;;;;5121112;27;20492;-74
2022/01/12 03:52:38;;;;;;;129.88;27.63;;;3.80;99.90;;;;;;5137869;27;20042;-74
2022/01/12 03:55:04;;;;;;;261.55;34.17;;;3.70;99.90;;;;;;5119687;27;20098;-74
2022/01/12 03:57:30;;;;;;;142.77;27.08;;;3.60;99.90;;;;;;5123615;27;20397;-74
2022/01/12 03:59:56;;;;;;;380.75;35.83;;;3.60;99.90;;;;;;5156163;27;20035;-74
2022/01/12 04:02:22;;;;;;;157.52;25.08;;;3.50;99.90;;;;;;5116464;27;20108;-74
2022/01/12 04:10:24;;;;;;;789.58;52.75;;;3.30;99.90;;;;;;5137970;27;20043;-74
2022/01/12 04:12:50;;;;;;;859.20;49.85;;;3.30;99.90;;;;;;5112442;27;20393;-74
2022/01/12 04:15:16;;;;;;;505.70;31.38;;;3.20;99.90;;;;;;5138357;27;20106;-74
2022/01/12 04:17:41;;;;;;;581.50;39.10;;;3.80;99.90;;;;;;5155809;27;20474;-74
2022/01/12 04:20:07;;;;;;;606.03;42.00;;;3.00;99.90;;;;;;5155650;27;20103;-74
2022/01/12 04:25:18;;;;;;;798.22;46.63;;;2.90;99.90;;;;;;5117214;27;20046;-74
2022/01/12 04:27:44;;;;;;;466.45;32.38;;;3.00;99.90;;;;;;5126397;27;20524;-74
2022/01/12 04:30:10;;;;;;;412.10;32.92;;;2.80;99.90;;;;;;5137733;27;20078;-74
2022/01/12 04:32:41;;;;;;;428.08;34.33;;;2.70;99.90;;;;;;5136791;27;20047;-74
2022/01/12 04:35:07;;;;;;;259.50;24.15;;;2.70;99.90;;;;;;5136811;27;20051;-74
2022/01/12 04:37:34;;;;;;;276.67;23.98;;;2.60;99.90;;;;;;5148288;27;20028;-74
2022/01/12 04:39:59;;;;;;;173.60;19.67;;;2.70;99.90;;;;;;5099214;27;20103;-74
2022/01/12 04:42:25;;;;;;;177.45;17.15;;;2.50;99.90;;;;;;5122834;27;20050;-75
2022/01/12 04:44:59;;;;;;;176.63;19.08;;;2.50;99.90;;;;;;5155628;27;20401;-74
2022/01/12 04:47:46;;;;;;;237.98;22.50;;;3.00;99.90;;;;;;5115171;27;20046;-74
2022/01/12 04:50:12;;;;;;;260.00;23.73;;;2.30;99.90;;;;;;5117059;27;20051;-74
2022/01/12 04:52:37;;;;;;;162.52;19.15;;;2.20;99.90;;;;;;5116723;27;20050;-74
2022/01/12 04:55:03;;;;;;;278.63;24.33;;;2.30;99.90;;;;;;5099136;27;20042;-74
2022/01/12 04:57:29;;;;;;;294.40;22.83;;;2.10;99.90;;;;;;5121277;27;20074;-74
2022/01/12 05:00:37;;;;;;;478.30;34.55;;;2.10;99.90;;;;;;5137482;27;20067;-74
2022/01/12 05:13:33;;;;;;;245.30;24.20;;;2.10;99.90;;;;;;5135216;27;20466;-74
2022/01/12 05:16:00;;;;;;;111.43;15.65;;;2.00;99.90;;;;;;5135886;27;20078;-74
2022/01/12 05:18:27;;;;;;;201.77;19.95;;;2.00;99.90;;;;;;5136232;27;20046;-74
2022/01/12 05:20:53;;;;;;;338.80;26.00;;;1.90;99.90;;;;;;5119597;27;20538;-74
2022/01/12 05:23:19;;;;;;;443.45;34.53;;;2.80;99.90;;;;;;5153486;27;20038;-74
2022/01/12 05:25:47;;;;;;;425.70;33.55;;;1.90;99.90;;;;;;5155315;27;20046;-74
2022/01/12 05:28:15;;;;;;;456.33;35.90;;;2.50;99.90;;;;;;5128677;27;20043;-74
2022/01/12 05:30:41;;;;;;;228.73;21.00;;;2.40;99.90;;;;;;5115537;27;20050;-74
2022/01/12 05:33:07;;;;;;;272.73;22.55;;;1.90;99.90;;;;;;5132062;27;20046;-74
2022/01/12 05:35:33;;;;;;;354.92;29.42;;;1.90;99.90;;;;;;5134400;27;20047;-74
2022/01/12 05:38:02;;;;;;;269.13;25.40;;;1.90;99.90;;;;;;5133489;27;20115;-74
2022/01/12 05:40:28;;;;;;;286.73;26.80;;;1.90;99.90;;;;;;5124774;27;20129;-74
2022/01/12 05:42:55;;;;;;;285.05;24.60;;;2.20;99.90;;;;;;5122738;27;20095;-74
2022/01/12 05:45:22;;;;;;;397.48;33.97;;;1.90;99.90;;;;;;5143479;27;20055;-74
2022/01/12 05:50:17;;;;;;;257.80;23.23;;;1.90;99.90;;;;;;5135709;27;20057;-74
2022/01/12 05:52:43;;;;;;;226.63;21.65;;;1.90;99.90;;;;;;5142977;27;20046;-74
2022/01/12 05:55:11;;;;;;;229.07;21.33;;;2.00;99.90;;;;;;5125477;27;20039;-74
2022/01/12 05:57:37;;;;;;;182.32;16.52;;;2.10;99.90;;;;;;5135725;27;20054;-74
2022/01/12 06:00:08;;;;;;;302.13;25.63;;;1.80;99.90;;;;;;5146234;27;20122;-74
2022/01/12 06:02:34;;;;;;;181.10;20.27;;;1.80;99.90;;;;;;5131297;27;20408;-74
2022/01/12 06:05:00;;;;;;;388.17;30.70;;;2.50;99.90;;;;;;5152964;27;20042;-74
2022/01/12 06:07:26;;;;;;;373.45;30.52;;;1.80;99.90;;;;;;5148516;27;20061;-74
2022/01/12 06:09:52;;;;;;;468.00;32.83;;;2.30;99.90;;;;;;5147961;27;20054;-74
2022/01/12 06:12:18;;;;;;;313.90;24.20;;;2.20;99.90;;;;;;5135478;27;20038;-74
2022/01/12 06:14:43;;;;;;;349.80;28.35;;;1.80;99.90;;;;;;5136594;27;20050;-74
2022/01/12 06:17:10;;;;;;;343.50;33.10;;;1.90;99.90;;;;;;5154529;27;20031;-74
2022/01/12 06:19:37;;;;;;;162.77;17.63;;;2.00;99.90;;;;;;5135391;27;20046;-74
2022/01/12 06:22:03;;;;;;;169.13;19.98;;;1.90;99.90;;;;;;5139450;27;20053;-74
2022/01/12 06:24:29;;;;;;;230.13;22.60;;;1.90;99.90;;;;;;5159152;27;20043;-74
2022/01/12 06:26:55;;;;;;;409.33;36.28;;;1.90;99.90;;;;;;5157646;27;20041;-74
2022/01/12 06:31:53;;;;;;;175.63;20.60;;;1.80;99.90;;;;;;5158489;27;20450;-74
2022/01/12 06:34:18;;;;;;;200.02;22.02;;;2.00;99.90;;;;;;5139208;27;20508;-74
2022/01/12 06:36:44;;;;;;;280.60;30.60;;;1.80;99.90;;;;;;5158497;27;20043;-74
2022/01/12 06:39:13;;;;;;;179.98;23.35;;;2.30;99.90;;;;;;5158592;27;20034;-74
2022/01/12 06:41:40;;;;;;;106.18;16.55;;;1.80;99.90;;;;;;5139469;27;20086;-74
2022/01/12 06:44:12;;;;;;;78.20;16.08;;;2.00;99.90;;;;;;5139896;27;20504;-74
2022/01/12 06:46:38;;;;;;;105.97;16.67;;;1.80;99.90;;;;;;5121548;27;20195;-74
2022/01/12 06:49:03;;;;;;;119.20;15.32;;;1.80;99.90;;;;;;5139694;27;20125;-74
2022/01/12 06:51:29;;;;;;;223.60;26.08;;;1.80;99.90;;;;;;5139966;27;20034;-74
2022/01/12 06:53:55;;;;;;;222.38;23.58;;;1.80;99.90;;;;;;5139122;27;20579;-74
2022/01/12 06:56:21;;;;;;;98.40;17.15;;;1.80;99.90;;;;;;5158160;27;20367;-74
2022/01/12 06:58:47;;;;;;;79.40;19.98;;;1.80;99.90;;;;;;5139608;27;20045;-74
2022/01/12 07:01:14;;;;;;;196.50;26.75;;;1.80;99.90;;;;;;5138412;27;20049;-74
2022/01/12 07:03:39;;;;;;;273.85;35.65;;;1.70;99.90;;;;;;5157896;27;20039;-75
2022/01/12 07:06:05;;;;;;;204.50;28.08;;;2.40;99.90;;;;;;5139559;27;20103;-75
2022/01/12 07:08:34;;;;;;;178.90;24.05;;;1.70;99.90;;;;;;5138590;27;20482;-75
2022/01/12 07:11:00;;;;;;;211.57;23.42;;;1.70;99.90;;;;;;5157968;27;20117;-75
2022/01/12 07:13:26;;;;;;;199.32;23.95;;;1.70;99.90;;;;;;5139189;27;20142;-75
2022/01/12 07:15:52;;;;;;;182.15;21.52;;;1.80;99.90;;;;;;5156856;27;20030;-75
2022/01/12 07:18:21;;;;;;;153.75;19.63;;;1.70;99.90;;;;;;5138011;27;20099;-75
2022/01/12 07:20:49;;;;;;;161.65;20.42;;;1.70;99.90;;;;;;5146170;27;20038;-75
2022/01/12 07:23:14;;;;;;;171.40;20.42;;;1.70;99.90;;;;;;5140275;27;20047;-75
2022/01/12 07:25:40;;;;;;;161.25;15.68;;;1.70;99.90;;;;;;5121360;27;20095;-75
2022/01/12 07:28:06;;;;;;;224.82;20.92;;;1.70;99.90;;;;;;5119331;27;20058;-75
2022/01/12 07:30:32;;;;;;;215.75;18.23;;;1.70;99.90;;;;;;5138576;27;20401;-75
2022/01/12 07:32:58;;;;;;;202.10;15.32;;;2.40;99.90;;;;;;5121464;27;20049;-75
2022/01/12 07:35:30;;;;;;;280.17;24.13;;;1.70;99.90;;;;;;5118945;27;20035;-75
2022/01/12 07:37:56;;;;;;;173.88;15.77;;;1.70;99.90;;;;;;5140596;27;20038;-75
2022/01/12 07:40:22;;;;;;;332.27;27.08;;;1.70;99.90;;;;;;5137240;27;20042;-75
2022/01/12 07:42:51;;;;;;;143.13;16.10;;;1.70;99.90;;;;;;5124768;27;20055;-75
2022/01/12 07:45:17;;;;;;;88.78;10.52;;;1.90;99.90;;;;;;5143176;27;20496;-75
2022/01/12 07:47:43;;;;;;;225.05;26.05;;;1.70;99.90;;;;;;5137841;27;20050;-75
2022/01/12 07:50:10;;;;;;;178.40;16.10;;;1.70;99.90;;;;;;5139900;27;20039;-75
2022/01/12 07:52:36;;;;;;;213.05;20.50;;;2.10;99.90;;;;;;5116124;27;20035;-75
2022/01/12 07:55:04;;;;;;;197.43;18.20;;;1.80;99.90;;;;;;5140343;27;20062;-75
2022/01/12 07:57:30;;;;;;;129.55;14.23;;;1.70;99.90;;;;;;5122707;27;20457;-75
2022/01/12 07:59:56;;;;;;;145.65;14.55;;;1.70;99.90;;;;;;5137170;27;20078;-75
2022/01/12 08:02:22;;;;;;;151.50;15.27;;;1.70;99.90;;;;;;5140477;27;20033;-75
2022/01/12 08:04:48;;;;;;;136.10;15.88;;;2.30;99.90;;;;;;5138417;27;20040;-75
2022/01/12 08:07:14;;;;;;;143.95;15.55;;;2.40;99.90;;;;;;5141025;27;20042;-75
2022/01/12 08:09:41;;;;;;;117.13;14.40;;;1.70;99.90;;;;;;5120267;27;20073;-75
2022/01/12 08:12:08;;;;;;;100.75;14.55;;;1.80;99.90;;;;;;5136685;27;20070;-75
2022/01/12 08:14:35;;;;;;;85.55;10.77;;;1.70;99.90;;;;;;5137546;27;20516;-75
2022/01/12 08:17:01;;;;;;;87.13;13.40;;;2.00;99.90;;;;;;5156487;27;20038;-75
2022/01/12 08:19:28;;;;;;;133.93;17.15;;;1.90;99.90;;;;;;5137015;27;20057;-75
2022/01/12 08:21:55;;;;;;;48.38;9.90;;;1.70;99.90;;;;;;5144995;27;20071;-75
2022/01/12 08:24:21;;;;;;;154.32;19.50;;;1.70;99.90;;;;;;5131829;27;20046;-75
2022/01/12 08:26:47;;;;;;;141.63;18.17;;;1.90;99.90;;;;;;5136379;27;20077;-75
2022/01/12 08:29:15;;;;;;;224.98;23.88;;;1.80;99.90;;;;;;5134720;27;20082;-75
2022/01/12 08:31:41;;;;;;;116.65;15.50;;;1.80;99.90;;;;;;5138749;27;20034;-75
2022/01/12 08:34:08;;;;;;;49.47;12.13;;;1.80;99.90;;;;;;5119611;27;20039;-75
2022/01/12 08:36:34;;;;;;;89.85;15.50;;;2.20;99.90;;;;;;5121159;27;20034;-75
2022/01/12 08:39:02;;;;;;;76.00;13.30;;;1.90;99.90;;;;;;5155788;27;20039;-75
2022/01/12 08:41:28;;;;;;;115.70;18.30;;;2.00;99.90;;;;;;5135462;27;20556;-75
2022/01/12 08:43:53;;;;;;;69.68;13.45;;;2.00;99.90;;;;;;5116449;27;20152;-75
2022/01/12 08:46:19;;;;;;;68.55;13.77;;;2.10;99.90;;;;;;5141005;27;20047;-75
2022/01/12 08:48:45;;;;;;;99.45;16.90;;;2.10;99.90;;;;;;5119585;27;20054;-75
2022/01/12 08:51:11;;;;;;;103.32;16.35;;;2.20;99.90;;;;;;5140663;27;20035;-75
2022/01/12 08:53:37;;;;;;;84.72;14.43;;;2.20;99.90;;;;;;5144351;27;20492;-75
2022/01/12 08:56:03;;;;;;;88.93;14.02;;;2.20;99.90;;;;;;5155842;27;20035;-75
2022/01/12 08:58:28;;;;;;;80.82;14.90;;;2.30;99.90;;;;;;5135279;27;20482;-75
2022/01/12 09:00:55;;;;;;;123.28;16.27;;;2.30;99.90;;;;;;5118143;27;20042;-75
2022/01/12 09:03:22;;;;;;;73.72;12.52;;;2.30;99.90;;;;;;5118993;27;20046;-75
2022/01/12 09:05:49;;;;;;;63.17;12.70;;;2.30;99.90;;;;;;5118650;27;20043;-75
2022/01/12 09:08:15;;;;;;;85.47;13.88;;;2.40;99.90;;;;;;5120825;27;20476;-75
2022/01/12 09:10:41;;;;;;;171.05;20.33;;;2.60;99.90;;;;;;5155609;27;20043;-75
2022/01/12 09:13:07;;;;;;;50.83;12.50;;;2.50;99.90;;;;;;5136705;27;20069;-75
2022/01/12 09:15:33;;;;;;;115.60;16.17;;;2.50;99.90;;;;;;5123422;27;20193;-75
2022/01/12 09:17:58;;;;;;;67.03;14.02;;;2.50;99.90;;;;;;5120685;27;20049;-75
2022/01/12 09:20:25;;;;;;;28.08;8.25;;;2.60;99.90;;;;;;5138661;27;20031;-75
2022/01/12 09:22:52;;;;;;;35.20;9.30;;;2.60;99.90;;;;;;5120491;27;20047;-75
2022/01/12 09:25:18;;;;;;;66.05;12.32;;;2.60;99.90;;;;;;5136246;27;20047;-75
2022/01/12 09:27:44;;;;;;;119.53;15.90;;;2.70;99.90;;;;;;5136464;27;20047;-75
2022/01/12 09:30:11;;;;;;;52.00;11.68;;;2.70;99.90;;;;;;5129915;27;20107;-75
2022/01/12 09:32:38;;;;;;;43.40;10.05;;;2.80;99.90;;;;;;5141149;27;20390;-75
2022/01/12 09:35:04;;;;;;;83.70;12.65;;;2.80;99.90;;;;;;5139044;27;20042;-75
2022/01/12 09:37:30;;;;;;;62.22;11.48;;;2.80;99.90;;;;;;5119497;27;20039;-75
2022/01/12 09:39:56;;;;;;;34.85;7.88;;;3.20;99.90;;;;;;5151883;27;20049;-75
2022/01/12 09:42:22;;;;;;;77.72;10.65;;;3.00;99.90;;;;;;5135700;27;20095;-75
2022/01/12 09:44:48;;;;;;;64.30;10.90;;;3.10;99.90;;;;;;5111929;27;20035;-75
2022/01/12 09:47:16;;;;;;;56.13;12.13;;;3.10;99.90;;;;;;5120305;27;20116;-75
2022/01/12 09:49:44;;;;;;;125.45;12.95;;;3.20;99.90;;;;;;5119177;27;20750;-75
2022/01/12 09:52:10;;;;;;;63.05;11.10;;;3.30;99.90;;;;;;5140807;27;20027;-75
2022/01/12 09:54:36;;;;;;;269.05;22.20;;;3.40;99.90;;;;;;5145736;27;20499;-75
2022/01/12 09:57:03;;;;;;;146.65;14.65;;;3.40;99.90;;;;;;5157497;27;20046;-75
2022/01/12 09:59:30;;;;;;;274.88;17.58;;;3.50;99.90;;;;;;5158145;27;20051;-75
2022/01/12 10:01:57;;;;;;;131.60;11.90;;;3.50;99.90;;;;;;5126154;27;20046;-75
2022/01/12 10:04:25;;;;;;;158.43;13.40;;;3.60;99.90;;;;;;5137308;27;20090;-75
2022/01/12 10:06:53;;;;;;;79.10;9.80;;;3.60;99.90;;;;;;5142992;27;20047;-75
2022/01/12 10:09:40;;;;;;;166.77;12.95;;;3.70;99.90;;;;;;5128538;27;20121;-75
2022/01/12 10:12:11;;;;;;;131.57;11.32;;;4.00;99.90;;;;;;5158145;27;20050;-75
2022/01/12 10:14:42;;;;;;;138.43;12.25;;;3.80;99.90;;;;;;5137414;27;20421;-75
2022/01/12 10:17:08;;;;;;;262.00;20.38;;;3.90;99.90;;;;;;5141440;27;20047;-75
2022/01/12 10:19:35;;;;;;;125.57;12.57;;;3.90;99.90;;;;;;5125511;27;20462;-75
2022/01/12 10:22:03;;;;;;;159.98;13.20;;;4.00;99.90;;;;;;5130731;27;20047;-75
2022/01/12 10:24:30;;;;;;;161.93;12.95;;;4.10;99.90;;;;;;5148528;27;20031;-75
2022/01/12 10:26:57;;;;;;;231.52;19.63;;;4.20;99.90;;;;;;5137149;27;20439;-75
2022/01/12 10:29:25;;;;;;;144.73;12.85;;;4.20;99.90;;;;;;5120180;27;20054;-75
2022/01/12 10:31:53;;;;;;;218.88;15.45;;;4.20;99.90;;;;;;5120527;27;20489;-74
2022/01/12 10:34:40;;;;;;;205.73;14.45;;;4.20;99.90;;;;;;5138126;27;20051;-75
2022/01/12 10:37:11;;;;;;;192.00;13.65;;;4.30;99.90;;;;;;5122530;27;20043;-74
2022/01/12 10:39:43;;;;;;;160.27;12.68;;;4.30;99.90;;;;;;5138899;27;20050;-74
2022/01/12 10:42:11;;;;;;;107.72;10.10;;;4.30;99.90;;;;;;5142414;27;20474;-75
2022/01/12 10:44:43;;;;;;;147.00;10.82;;;4.40;99.90;;;;;;5137635;27;20393;-75
2022/01/12 10:47:13;;;;;;;155.70;12.10;;;4.40;99.90;;;;;;5142585;27;20127;-76
2022/01/12 10:49:42;;;;;;;204.80;12.80;;;4.40;99.90;;;;;;5120325;27;20089;-75
2022/01/12 10:52:14;;;;;;;147.90;12.40;;;4.40;99.90;;;;;;5145491;27;20045;-75
2022/01/12 10:54:50;;;;;;;116.63;11.13;;;4.50;99.90;;;;;;5130837;27;20050;-75
2022/01/12 10:57:21;;;;;;;213.57;16.67;;;4.60;99.90;;;;;;5139488;27;20107;-75
2022/01/12 11:00:10;;;;;;;115.47;12.00;;;4.60;99.90;;;;;;5134271;27;20101;-76
2022/01/12 11:02:39;;;;;;;118.82;10.73;;;4.70;99.90;;;;;;5123430;27;20103;-75
2022/01/12 11:05:07;;;;;;;106.30;9.13;;;4.80;99.90;;;;;;5144947;27;20053;-75
2022/01/12 11:07:33;;;;;;;105.60;10.65;;;4.80;99.90;;;;;;5122588;27;20043;-76
2022/01/12 11:10:01;;;;;;;52.85;8.35;;;4.80;99.90;;;;;;5150320;27;20043;-75
2022/01/12 11:12:28;;;;;;;93.97;10.13;;;4.90;99.90;;;;;;5139167;27;20482;-75
2022/01/12 11:14:54;;;;;;;76.18;8.52;;;5.00;99.90;;;;;;5119448;27;20511;-75
2022/01/12 11:17:19;;;;;;;80.95;10.68;;;5.00;99.90;;;;;;5140137;27;20043;-75
2022/01/12 11:20:03;;;;;;;94.22;10.52;;;5.00;99.90;;;;;;5125021;27;20081;-75
2022/01/12 11:22:43;;;;;;;71.95;8.63;;;5.00;99.90;;;;;;5122447;27;20459;-75
2022/01/12 11:25:29;;;;;;;67.07;9.13;;;5.00;99.90;;;;;;5132808;27;20077;-75
2022/01/12 11:28:18;;;;;;;70.93;9.85;;;5.10;99.90;;;;;;5137585;27;20043;-75
2022/01/12 11:30:50;;;;;;;71.97;8.88;;;5.10;99.90;;;;;;5120891;27;20039;-76
2022/01/12 11:33:18;;;;;;;71.85;8.35;;;5.20;99.90;;;;;;5119711;27;20401;-76
2022/01/12 11:35:50;;;;;;;56.67;8.05;;;5.20;99.90;;;;;;5139287;27;20051;-76
2022/01/12 11:38:28;;;;;;;66.53;9.40;;;5.20;99.90;;;;;;5118302;27;20039;-75
2022/01/12 11:41:13;;;;;;;61.95;8.55;;;5.30;99.90;;;;;;5118068;27;20050;-76
2022/01/12 11:43:46;;;;;;;;;;;5.30;99.90;;;;;;5145877;27;20070;-75
2022/01/12 11:46:18;;;;;;;51.65;8.50;;;5.30;99.90;;;;;;5147559;27;20006;-75
2022/01/12 11:48:58;;;;;;;43.28;8.23;;;5.30;99.90;;;;;;5118627;27;20486;-75
2022/01/12 11:51:40;;;;;;;39.10;7.68;;;5.30;99.90;;;;;;5098538;27;20203;-76
2022/01/12 11:54:16;;;;;;;41.90;9.00;;;5.30;99.90;;;;;;5141340;27;20046;-75
2022/01/12 11:56:55;;;;;;;42.30;9.00;;;5.30;99.90;;;;;;5137465;27;20546;-75
2022/01/12 11:59:22;;;;;;;32.28;7.53;;;5.30;99.90;;;;;;5156863;27;20060;-75
2022/01/12 12:01:54;;;;;;;40.25;8.45;;;5.30;99.90;;;;;;5120823;27;20486;-75
2022/01/12 12:04:22;;;;;;;54.15;9.25;;;5.30;99.90;;;;;;5140509;27;20397;-76
2022/01/12 12:06:49;;;;;;;37.25;7.85;;;5.20;99.90;;;;;;5137258;27;20080;-75
2022/01/12 12:09:18;;;;;;;55.35;9.32;;;5.30;99.90;;;;;;5126656;27;20047;-76
2022/01/12 12:11:51;;;;;;;37.70;8.38;;;5.30;99.90;;;;;;5137228;27;20050;-76
2022/01/12 12:14:19;;;;;;;42.35;8.20;;;5.30;99.90;;;;;;5137845;27;20544;-76
2022/01/12 12:16:45;;;;;;;49.20;9.52;;;5.30;99.90;;;;;;5143379;27;20047;-76
2022/01/12 12:19:11;;;;;;;32.92;8.85;;;5.30;99.90;;;;;;5118588;27;20068;-76
2022/01/12 12:21:37;;;;;;;43.88;10.55;;;5.50;99.90;;;;;;5119216;27;20047;-76
2022/01/12 12:24:14;;;;;;;52.25;9.50;;;5.40;99.90;;;;;;5127490;27;20074;-76
2022/01/12 12:26:53;;;;;;;50.83;8.90;;;5.40;99.90;;;;;;5137734;27;20043;-76
2022/01/12 12:29:26;;;;;;;39.58;8.35;;;5.40;99.90;;;;;;5155939;27;20046;-77
2022/01/12 12:31:53;;;;;;;35.72;7.72;;;5.40;99.90;;;;;;5136991;27;20069;-75
2022/01/12 12:34:23;;;;;;;48.80;7.60;;;5.40;99.90;;;;;;5138175;27;20035;-76
2022/01/12 12:37:10;;;;;;;31.85;7.78;;;5.40;99.90;;;;;;5138626;27;20054;-75
2022/01/12 12:39:38;;;;;;;69.28;8.20;;;5.50;99.90;;;;;;5139965;27;20452;-76
2022/01/12 12:42:17;;;;;;;93.55;9.13;;;5.50;99.90;;;;;;5117071;27;20488;-75
2022/01/12 12:44:44;;;;;;;84.40;10.20;;;5.50;99.90;;;;;;5152467;27;20041;-76
2022/01/12 12:47:14;;;;;;;83.10;9.68;;;5.50;99.90;;;;;;5136823;27;20038;-76
2022/01/12 12:49:46;;;;;;;75.47;9.50;;;5.40;99.90;;;;;;5120817;27;20057;-76
2022/01/12 12:52:12;;;;;;;59.72;9.63;;;5.40;99.90;;;;;;5119973;27;20482;-75
2022/01/12 12:54:42;;;;;;;30.58;8.02;;;5.40;99.90;;;;;;5136539;27;20053;-76
2022/01/12 12:57:10;;;;;;;37.55;8.90;;;5.40;99.90;;;;;;5148581;27;20063;-76
2022/01/12 12:59:40;;;;;;;38.17;9.10;;;5.50;99.90;;;;;;5133253;27;20520;-76
2022/01/12 13:02:12;;;;;;;31.55;9.57;;;5.50;99.90;;;;;;5121620;27;20049;-76
2022/01/12 13:04:38;;;;;;;58.53;9.70;;;5.50;99.90;;;;;;5144687;27;20047;-76
2022/01/12 13:07:17;;;;;;;60.00;10.88;;;5.50;99.90;;;;;;5136083;27;20485;-76
2022/01/12 13:09:43;;;;;;;55.25;11.68;;;5.50;99.90;;;;;;5154091;27;20050;-76
2022/01/12 13:12:09;;;;;;;68.85;14.00;;;5.50;99.90;;;;;;5136783;27;20050;-76
2022/01/12 13:14:46;;;;;;;79.13;12.60;;;5.50;99.90;;;;;;5135943;27;20397;-76
2022/01/12 13:17:13;;;;;;;38.70;10.93;;;5.50;99.90;;;;;;5136920;27;20043;-76
2022/01/12 13:22:35;;;;;;;74.07;14.30;;;5.60;99.90;;;;;;5135912;27;20111;-76
2022/01/12 13:25:05;;;;;;;66.93;14.15;;;5.60;99.90;;;;;;5136294;27;20047;-76
2022/01/12 13:27:33;;;;;;;52.25;13.15;;;5.70;99.90;;;;;;5154555;27;20051;-76
2022/01/12 13:29:58;;;;;;;40.97;13.73;;;5.60;99.90;;;;;;5136330;27;20110;-76
2022/01/12 13:32:24;;;;;;;70.93;14.52;;;5.70;99.90;;;;;;5136327;27;20485;-76
2022/01/12 13:34:57;;;;;;;45.97;13.40;;;5.70;99.90;;;;;;5135172;27;20042;-76
2022/01/12 13:37:23;;;;;;;66.95;13.23;;;5.70;99.90;;;;;;5136357;27;20042;-76
2022/01/12 13:40:04;;;;;;;50.92;12.55;;;5.70;99.90;;;;;;5136500;27;20050;-76
2022/01/12 13:42:30;;;;;;;60.15;13.63;;;5.70;99.90;;;;;;5134848;27;20047;-76
2022/01/12 13:45:07;;;;;;;41.58;11.88;;;5.80;99.90;;;;;;5136189;27;20394;-76
2022/01/12 13:47:37;;;;;;;41.03;11.32;;;5.80;99.90;;;;;;5135906;27;20066;-77
2022/01/12 13:50:09;;;;;;;42.13;11.75;;;5.80;99.90;;;;;;5114981;28;20039;-76
2022/01/12 13:52:38;;;;;;;42.90;12.15;;;5.80;99.90;;;;;;5120649;27;20035;-76
2022/01/12 13:55:09;;;;;;;91.05;15.35;;;5.80;99.90;;;;;;5154627;27;20049;-76
2022/01/12 13:57:35;;;;;;;52.97;13.30;;;5.80;99.90;;;;;;5135254;27;20053;-76
2022/01/12 14:00:01;;;;;;;47.03;12.43;;;5.80;99.90;;;;;;5136254;27;20039;-76
2022/01/12 14:02:29;;;;;;;61.47;13.80;;;5.80;99.90;;;;;;5135884;27;20049;-76
2022/01/12 14:05:07;;;;;;;54.20;14.73;;;5.90;99.90;;;;;;5118743;27;20047;-76